Time;durP1;ratioP1;P1;durP2;ratioP2;P2;SDS_P1;SDS_P2;PMS_P1;PMS_P2;Temp;Humidity;BMP_temperature;BMP_pressure;BME280_temperature;BME280_humidity;BME280_pressure;Samples;Min_cycle;Max_cycle;Signal;HPM_P1;HPM_P2
2021/10/21 00:00:34;;;;;;;14.85;6.13;;;14.50;99.90;;;;;;5057382;28;25099;-72
2021/10/21 00:03:01;;;;;;;12.82;6.22;;;14.40;99.90;;;;;;5053373;28;25106;-72
2021/10/21 00:05:26;;;;;;;11.00;5.35;;;14.40;99.90;;;;;;5066085;28;25062;-72
2021/10/21 00:07:54;;;;;;;13.18;5.93;;;14.40;99.90;;;;;;5057651;28;25059;-73
2021/10/21 00:10:20;;;;;;;7.32;5.00;;;14.30;99.90;;;;;;5060855;28;25076;-72
2021/10/21 00:12:46;;;;;;;10.20;4.90;;;14.40;99.90;;;;;;5040209;28;25065;-74
2021/10/21 00:15:12;;;;;;;10.68;5.45;;;14.40;99.90;;;;;;5055431;28;25111;-72
2021/10/21 00:17:38;;;;;;;11.82;5.57;;;14.40;99.90;;;;;;5060010;28;25076;-75
2021/10/21 00:20:07;;;;;;;16.15;6.75;;;14.40;99.90;;;;;;5033813;28;25060;-76
2021/10/21 00:22:33;;;;;;;12.45;5.40;;;14.40;99.90;;;;;;5048928;28;25075;-73
2021/10/21 00:24:58;;;;;;;11.93;5.82;;;14.40;99.90;;;;;;5041592;28;25067;-70
2021/10/21 00:27:25;;;;;;;10.50;5.85;;;14.40;99.90;;;;;;5033618;28;25140;-72
2021/10/21 00:29:51;;;;;;;11.65;3.20;;;14.40;99.90;;;;;;5048783;28;25134;-72
2021/10/21 00:32:16;;;;;;;6.82;2.72;;;13.40;99.90;;;;;;5023554;28;25112;-74
2021/10/21 00:34:42;;;;;;;10.70;2.50;;;12.70;99.90;;;;;;5022665;28;25072;-72
2021/10/21 00:37:08;;;;;;;4.72;1.85;;;12.40;99.90;;;;;;5025602;28;25116;-74
2021/10/21 00:39:33;;;;;;;5.95;1.85;;;12.20;99.90;;;;;;5032478;28;25060;-72
2021/10/21 00:41:59;;;;;;;14.23;2.40;;;12.20;99.90;;;;;;5044930;28;25118;-71
2021/10/21 00:44:25;;;;;;;6.78;2.22;;;12.20;99.90;;;;;;5045935;28;25067;-72
2021/10/21 00:46:51;;;;;;;18.48;3.28;;;12.30;99.90;;;;;;5049350;28;25135;-70
2021/10/21 00:49:17;;;;;;;12.25;2.47;;;12.50;99.90;;;;;;5041474;28;25051;-71
2021/10/21 00:51:43;;;;;;;9.15;2.35;;;12.50;99.90;;;;;;5046025;28;25069;-76
2021/10/21 00:54:09;;;;;;;6.55;2.20;;;12.40;99.90;;;;;;5046257;28;25150;-73
2021/10/21 00:56:35;;;;;;;10.63;2.33;;;12.40;99.90;;;;;;5027428;28;25162;-71
2021/10/21 00:59:02;;;;;;;8.90;1.83;;;12.40;99.90;;;;;;5028087;28;25075;-71
2021/10/21 01:01:32;;;;;;;7.65;1.98;;;12.30;99.90;;;;;;5038479;28;25089;-71
2021/10/21 01:03:57;;;;;;;9.85;2.22;;;12.30;99.90;;;;;;5027739;28;25048;-70
2021/10/21 01:06:23;;;;;;;10.27;1.92;;;12.20;99.90;;;;;;5052819;28;25073;-73
2021/10/21 01:08:50;;;;;;;11.23;1.80;;;12.10;99.90;;;;;;5031645;28;25076;-71
2021/10/21 01:11:16;;;;;;;7.63;1.65;;;12.10;99.90;;;;;;5051281;28;25025;-71
2021/10/21 01:13:41;;;;;;;7.35;1.17;;;12.00;99.90;;;;;;5043757;28;25130;-72
2021/10/21 01:16:10;;;;;;;2.85;0.80;;;11.90;99.90;;;;;;5051280;28;25053;-72
2021/10/21 01:18:37;;;;;;;2.30;0.90;;;11.80;99.90;;;;;;5050924;28;25078;-70
2021/10/21 01:21:04;;;;;;;3.05;1.05;;;11.70;99.90;;;;;;5042569;28;25090;-69
2021/10/21 01:23:30;;;;;;;3.92;0.60;;;11.70;99.90;;;;;;5050052;28;25053;-70
2021/10/21 01:25:56;;;;;;;3.47;0.90;;;11.60;99.90;;;;;;5033394;28;25118;-70
2021/10/21 01:28:22;;;;;;;6.15;0.93;;;11.60;99.90;;;;;;5033670;28;25146;-69
2021/10/21 01:30:47;;;;;;;4.53;1.05;;;11.60;99.90;;;;;;5041602;28;25061;-70
2021/10/21 01:33:13;;;;;;;3.90;1.00;;;11.60;99.90;;;;;;5050049;28;25141;-69
2021/10/21 01:35:39;;;;;;;5.97;1.00;;;11.60;99.90;;;;;;5050497;28;25107;-66
2021/10/21 01:38:05;;;;;;;6.07;0.80;;;11.50;99.90;;;;;;5042785;28;25114;-69
2021/10/21 01:40:32;;;;;;;5.13;1.00;;;11.60;99.90;;;;;;5051326;28;25062;-70
2021/10/21 01:42:58;;;;;;;4.75;0.93;;;11.60;99.90;;;;;;5050239;28;25064;-71
2021/10/21 01:45:29;;;;;;;4.15;1.20;;;11.60;99.90;;;;;;5046494;28;25093;-69
2021/10/21 01:47:55;;;;;;;6.85;0.95;;;11.50;99.90;;;;;;5050589;28;25071;-68
2021/10/21 01:50:22;;;;;;;4.95;0.80;;;11.60;99.90;;;;;;5032770;28;25060;-70
2021/10/21 01:52:48;;;;;;;4.45;1.20;;;11.60;99.90;;;;;;5049658;28;25107;-71
2021/10/21 01:55:14;;;;;;;7.80;1.00;;;11.60;99.90;;;;;;5054480;28;25063;-69
2021/10/21 01:57:41;;;;;;;4.47;1.58;;;11.70;99.90;;;;;;5062221;28;25076;-72
2021/10/21 02:00:10;;;;;;;7.45;1.02;;;11.60;99.90;;;;;;5050369;28;25136;-68
2021/10/21 02:02:35;;;;;;;7.35;1.13;;;11.60;99.90;;;;;;5050988;28;25061;-71
2021/10/21 02:05:01;;;;;;;5.15;1.55;;;11.60;99.90;;;;;;5044336;28;24741;-67
2021/10/21 02:07:27;;;;;;;2.70;1.10;;;11.60;99.90;;;;;;5051263;28;25051;-69
2021/10/21 02:09:52;;;;;;;5.35;1.30;;;11.60;99.90;;;;;;5049762;28;25098;-70
2021/10/21 02:12:20;;;;;;;6.85;1.70;;;11.50;99.90;;;;;;5050286;28;25151;-71
2021/10/21 02:14:46;;;;;;;3.88;1.20;;;11.50;99.90;;;;;;5037763;28;25086;-68
2021/10/21 02:17:12;;;;;;;6.25;1.52;;;11.40;99.90;;;;;;5029163;28;25071;-70
2021/10/21 02:19:38;;;;;;;7.28;1.40;;;11.40;99.90;;;;;;5036146;28;25107;-69
2021/10/21 02:22:04;;;;;;;11.77;1.88;;;11.40;99.90;;;;;;5046704;28;25074;-68
2021/10/21 02:24:30;;;;;;;8.52;2.00;;;11.40;99.90;;;;;;5047630;28;25078;-71
2021/10/21 02:26:57;;;;;;;5.28;1.27;;;11.50;99.90;;;;;;5049021;28;25057;-73
2021/10/21 02:29:23;;;;;;;10.60;1.98;;;11.40;99.90;;;;;;5049415;28;25122;-69
2021/10/21 02:31:49;;;;;;;12.85;2.22;;;11.50;99.90;;;;;;5031782;28;25138;-70
2021/10/21 02:34:14;;;;;;;7.70;1.63;;;11.50;99.90;;;;;;5043276;28;25055;-70
2021/10/21 02:36:40;;;;;;;9.52;1.88;;;11.50;99.90;;;;;;5044114;28;25148;-67
2021/10/21 02:39:06;;;;;;;13.25;2.63;;;11.60;99.90;;;;;;5045796;28;25071;-69
2021/10/21 02:41:32;;;;;;;7.18;1.50;;;11.60;99.90;;;;;;5066193;28;25076;-70
2021/10/21 02:43:57;;;;;;;8.20;1.60;;;11.70;99.90;;;;;;5063905;28;25066;-70
2021/10/21 02:46:23;;;;;;;5.63;1.50;;;11.70;99.90;;;;;;5058490;28;25054;-70
2021/10/21 02:48:49;;;;;;;9.80;1.55;;;11.80;99.90;;;;;;5059676;28;25071;-67
2021/10/21 02:51:15;;;;;;;9.25;1.73;;;11.80;99.90;;;;;;5041989;28;25061;-70
2021/10/21 02:53:41;;;;;;;8.90;2.50;;;11.80;99.90;;;;;;5050016;28;25067;-71
2021/10/21 02:56:06;;;;;;;8.85;1.83;;;11.90;99.90;;;;;;5053586;28;25126;-69
2021/10/21 02:58:32;;;;;;;5.20;1.23;;;11.90;99.90;;;;;;5059773;28;25108;-70
2021/10/21 03:00:58;;;;;;;8.30;1.75;;;11.90;99.90;;;;;;5047907;28;25064;-69
2021/10/21 03:03:24;;;;;;;10.43;1.67;;;12.00;99.90;;;;;;5038423;28;25054;-68
2021/10/21 03:05:50;;;;;;;9.10;1.75;;;12.00;99.90;;;;;;5048137;28;25085;-67
2021/10/21 03:08:15;;;;;;;9.73;1.80;;;12.00;99.90;;;;;;5026897;28;25093;-68
2021/10/21 03:10:41;;;;;;;7.47;2.15;;;12.10;99.90;;;;;;5047000;28;25046;-68
2021/10/21 03:13:07;;;;;;;3.85;1.20;;;12.10;99.90;;;;;;5029796;28;25137;-69
2021/10/21 03:15:33;;;;;;;3.97;1.50;;;12.10;99.90;;;;;;5044869;28;25074;-69
2021/10/21 03:17:58;;;;;;;9.85;1.83;;;12.10;99.90;;;;;;5025560;28;25123;-67
2021/10/21 03:20:25;;;;;;;8.80;1.85;;;12.00;99.90;;;;;;5042002;28;25079;-69
2021/10/21 03:22:51;;;;;;;7.95;2.08;;;12.00;99.90;;;;;;5043814;28;25060;-71
2021/10/21 03:25:17;;;;;;;7.15;1.65;;;12.00;99.90;;;;;;5048749;28;25082;-69
2021/10/21 03:27:43;;;;;;;12.15;2.83;;;12.00;99.90;;;;;;5044038;28;25063;-69
2021/10/21 03:30:11;;;;;;;7.55;1.50;;;12.00;99.90;;;;;;5024098;28;25115;-70
2021/10/21 03:32:38;;;;;;;9.07;2.15;;;12.10;99.90;;;;;;5026901;28;25074;-71
2021/10/21 03:35:05;;;;;;;8.52;1.52;;;12.10;99.90;;;;;;5044982;28;25077;-67
2021/10/21 03:37:31;;;;;;;8.40;1.50;;;12.10;99.90;;;;;;5044559;28;25071;-71
2021/10/21 03:39:57;;;;;;;7.30;1.85;;;12.20;99.90;;;;;;5045235;28;25147;-70
2021/10/21 03:42:23;;;;;;;7.80;2.15;;;12.20;99.90;;;;;;5045956;28;25108;-72
2021/10/21 03:44:50;;;;;;;8.38;2.20;;;12.20;99.90;;;;;;5024088;28;25102;-70
2021/10/21 03:47:17;;;;;;;6.03;1.95;;;12.20;99.90;;;;;;5045219;28;25077;-70
2021/10/21 03:49:42;;;;;;;8.20;1.60;;;12.30;99.90;;;;;;5042979;28;25146;-71
2021/10/21 03:52:08;;;;;;;6.07;1.58;;;12.20;99.90;;;;;;5048222;28;25076;-69
2021/10/21 03:54:34;;;;;;;10.32;1.58;;;12.20;99.90;;;;;;5046739;28;25146;-69
2021/10/21 03:57:01;;;;;;;10.88;1.95;;;12.10;99.90;;;;;;5047724;28;25052;-69
2021/10/21 03:59:27;;;;;;;8.88;2.17;;;12.10;99.90;;;;;;5046853;28;25139;-70
2021/10/21 04:01:54;;;;;;;10.00;2.13;;;12.00;99.90;;;;;;5045606;28;25055;-69
2021/10/21 04:04:20;;;;;;;6.80;1.80;;;12.00;99.90;;;;;;5046963;28;25075;-73
2021/10/21 04:06:46;;;;;;;8.90;2.17;;;11.90;99.90;;;;;;5041877;28;25046;-69
2021/10/21 04:09:12;;;;;;;8.05;2.03;;;11.90;99.90;;;;;;5045152;28;25138;-69
2021/10/21 04:11:38;;;;;;;10.07;2.58;;;11.90;99.90;;;;;;5032109;28;25098;-69
2021/10/21 04:14:04;;;;;;;25.98;3.05;;;11.90;99.90;;;;;;5043824;28;25082;-70
2021/10/21 04:16:31;;;;;;;9.48;2.25;;;11.80;99.90;;;;;;5054301;28;25107;-69
2021/10/21 04:18:57;;;;;;;10.15;2.20;;;11.90;99.90;;;;;;5033929;28;25069;-71
2021/10/21 04:21:23;;;;;;;10.75;2.45;;;11.80;99.90;;;;;;5046601;28;25090;-69
2021/10/21 04:23:48;;;;;;;9.13;2.10;;;11.80;99.90;;;;;;5046204;28;25081;-69
2021/10/21 04:26:15;;;;;;;7.68;2.20;;;11.80;99.90;;;;;;5044852;28;25088;-70
2021/10/21 04:28:41;;;;;;;6.35;2.13;;;11.80;99.90;;;;;;5045923;28;25060;-69
2021/10/21 04:31:06;;;;;;;9.57;2.15;;;11.70;99.90;;;;;;5044965;28;25157;-69
2021/10/21 04:33:32;;;;;;;10.80;2.78;;;11.70;99.90;;;;;;5055079;28;25100;-69
2021/10/21 04:35:58;;;;;;;8.48;2.30;;;11.70;99.90;;;;;;5068253;28;25071;-70
2021/10/21 04:38:24;;;;;;;9.63;2.17;;;11.70;99.90;;;;;;5055947;28;25063;-70
2021/10/21 04:40:49;;;;;;;4.47;1.25;;;11.60;99.90;;;;;;5054789;28;25092;-72
2021/10/21 04:43:15;;;;;;;4.28;0.98;;;11.50;99.90;;;;;;5047347;28;25102;-73
2021/10/21 04:45:41;;;;;;;11.43;2.08;;;11.30;99.90;;;;;;5029621;28;25049;-72
2021/10/21 04:48:06;;;;;;;8.90;1.63;;;11.20;99.90;;;;;;5022396;28;25166;-72
2021/10/21 04:50:32;;;;;;;7.30;1.95;;;11.20;99.90;;;;;;5057729;28;25071;-69
2021/10/21 04:52:58;;;;;;;6.85;2.00;;;11.00;99.90;;;;;;5046100;28;25079;-71
2021/10/21 04:55:25;;;;;;;9.07;1.88;;;10.90;99.90;;;;;;5045069;28;25143;-72
2021/10/21 04:57:51;;;;;;;8.20;2.17;;;10.90;99.90;;;;;;5027411;28;25148;-71
2021/10/21 05:00:19;;;;;;;10.85;2.50;;;10.80;99.90;;;;;;5043129;28;25131;-68
2021/10/21 05:02:45;;;;;;;14.15;2.30;;;10.80;99.90;;;;;;5043334;28;25078;-73
2021/10/21 05:05:11;;;;;;;12.80;2.30;;;10.80;99.90;;;;;;5046895;28;25061;-71
2021/10/21 05:07:37;;;;;;;12.20;1.85;;;10.90;99.90;;;;;;5024121;28;25073;-72
2021/10/21 05:10:04;;;;;;;14.80;2.03;;;10.90;99.90;;;;;;5047048;28;25066;-70
2021/10/21 05:12:30;;;;;;;24.23;3.78;;;10.90;99.90;;;;;;5046626;28;25068;-72
2021/10/21 05:14:56;;;;;;;19.13;2.53;;;10.90;99.90;;;;;;5022925;28;25068;-71
2021/10/21 05:17:22;;;;;;;21.88;3.85;;;10.90;99.90;;;;;;5036170;28;25131;-72
2021/10/21 05:19:48;;;;;;;12.85;3.17;;;10.90;99.90;;;;;;5041783;28;25069;-71
2021/10/21 05:22:14;;;;;;;18.48;3.65;;;10.90;99.90;;;;;;5041535;28;25068;-72
2021/10/21 05:24:39;;;;;;;17.05;4.25;;;11.00;99.90;;;;;;5026313;28;25066;-72
2021/10/21 05:27:05;;;;;;;18.13;3.25;;;11.00;99.90;;;;;;5044158;28;25073;-71
2021/10/21 05:29:33;;;;;;;23.08;3.50;;;11.10;99.90;;;;;;5038837;28;25121;-72
2021/10/21 05:31:58;;;;;;;18.67;3.92;;;11.10;99.90;;;;;;5042276;28;25055;-71
2021/10/21 05:34:24;;;;;;;25.83;3.83;;;11.10;99.90;;;;;;5034409;28;25115;-74
2021/10/21 05:36:50;;;;;;;24.25;4.00;;;11.10;99.90;;;;;;5034146;28;25143;-71
2021/10/21 05:39:15;;;;;;;27.98;3.70;;;11.00;99.90;;;;;;5046827;28;25065;-70
2021/10/21 05:41:42;;;;;;;16.00;2.80;;;11.00;99.90;;;;;;5055457;28;25102;-71
2021/10/21 05:44:07;;;;;;;23.35;3.17;;;11.00;99.90;;;;;;5061184;28;25089;-71
2021/10/21 05:46:33;;;;;;;18.48;3.25;;;11.00;99.90;;;;;;5047916;28;25126;-71
2021/10/21 05:48:59;;;;;;;15.82;3.00;;;11.00;99.90;;;;;;5028320;28;25137;-70
2021/10/21 05:51:25;;;;;;;18.23;3.90;;;11.00;99.90;;;;;;5060294;28;25068;-68
2021/10/21 05:53:53;;;;;;;22.33;3.88;;;11.00;99.90;;;;;;5060099;28;25082;-69
2021/10/21 05:56:18;;;;;;;19.02;3.35;;;11.00;99.90;;;;;;5059214;28;25060;-70
2021/10/21 05:58:44;;;;;;;23.23;3.83;;;11.10;99.90;;;;;;5052022;28;25131;-71
2021/10/21 06:01:09;;;;;;;19.63;3.72;;;11.20;99.90;;;;;;5029006;28;25087;-70
2021/10/21 06:03:38;;;;;;;19.77;3.40;;;11.30;99.90;;;;;;5048193;28;25137;-71
2021/10/21 06:06:05;;;;;;;16.92;3.25;;;11.30;99.90;;;;;;5041418;28;25123;-68
2021/10/21 06:08:31;;;;;;;22.73;3.30;;;11.30;99.90;;;;;;5041326;28;25066;-71
2021/10/21 06:10:57;;;;;;;23.73;3.78;;;11.40;99.90;;;;;;5028920;28;25134;-70
2021/10/21 06:13:23;;;;;;;17.85;4.22;;;11.60;99.90;;;;;;5050992;28;25153;-68
2021/10/21 06:15:49;;;;;;;22.13;3.72;;;11.60;99.90;;;;;;5043445;28;25135;-69
2021/10/21 06:18:15;;;;;;;11.63;2.95;;;11.70;99.90;;;;;;5047085;28;25074;-71
2021/10/21 06:20:44;;;;;;;20.15;3.17;;;11.70;99.90;;;;;;5052885;28;25147;-76
2021/10/21 06:23:10;;;;;;;22.23;4.28;;;11.80;99.90;;;;;;5053434;28;25059;-66
2021/10/21 06:25:36;;;;;;;25.00;4.07;;;11.80;99.90;;;;;;5052873;28;25142;-71
2021/10/21 06:28:02;;;;;;;13.13;3.08;;;11.50;99.90;;;;;;5047747;28;25107;-71
2021/10/21 06:30:28;;;;;;;19.40;2.70;;;11.10;99.90;;;;;;5052898;28;25075;-72
2021/10/21 06:32:54;;;;;;;13.45;3.00;;;10.80;99.90;;;;;;5029016;28;25094;-75
2021/10/21 06:35:19;;;;;;;14.90;3.78;;;10.70;99.90;;;;;;5047380;28;25098;-70
2021/10/21 06:37:46;;;;;;;20.65;3.53;;;10.70;99.90;;;;;;5049180;28;25071;-70
2021/10/21 06:40:13;;;;;;;26.65;4.55;;;10.80;99.90;;;;;;5026724;28;25058;-72
2021/10/21 06:42:39;;;;;;;23.85;3.58;;;10.90;99.90;;;;;;5049353;28;25071;-69
2021/10/21 06:45:05;;;;;;;16.52;4.07;;;10.90;99.90;;;;;;5030858;28;25096;-72
2021/10/21 06:47:31;;;;;;;23.58;4.35;;;11.00;99.90;;;;;;5032026;28;25029;-71
2021/10/21 06:49:56;;;;;;;24.23;4.88;;;11.00;99.90;;;;;;5051803;28;25139;-72
2021/10/21 06:52:22;;;;;;;18.25;5.00;;;11.00;99.90;;;;;;5048095;28;25093;-70
2021/10/21 06:54:48;;;;;;;19.45;3.95;;;11.00;99.90;;;;;;5046783;28;25111;-73
2021/10/21 06:57:13;;;;;;;24.50;4.13;;;10.90;99.90;;;;;;5042523;28;25130;-71
2021/10/21 06:59:39;;;;;;;25.38;4.00;;;10.90;99.90;;;;;;5031111;28;25072;-71
2021/10/21 07:02:05;;;;;;;18.67;3.38;;;10.80;99.90;;;;;;5030938;28;25120;-71
2021/10/21 07:04:30;;;;;;;19.77;4.38;;;10.90;99.90;;;;;;5047035;28;25065;-71
2021/10/21 07:07:02;;;;;;;20.25;2.95;;;11.00;99.90;;;;;;5050428;28;25098;-70
2021/10/21 07:09:28;;;;;;;11.67;2.73;;;10.80;99.90;;;;;;5034626;28;25133;-71
2021/10/21 07:11:53;;;;;;;11.30;2.95;;;10.80;99.90;;;;;;5042321;28;25127;-69
2021/10/21 07:14:19;;;;;;;16.90;3.42;;;10.90;99.90;;;;;;5048380;28;25052;-70
2021/10/21 07:16:44;;;;;;;10.30;3.05;;;10.90;99.90;;;;;;5048493;28;25095;-69
2021/10/21 07:19:10;;;;;;;15.73;2.95;;;10.90;99.90;;;;;;5048087;28;25074;-69
2021/10/21 07:21:36;;;;;;;16.25;3.28;;;10.80;99.90;;;;;;5047170;28;25161;-69
2021/10/21 07:24:02;;;;;;;15.10;2.50;;;10.90;99.90;;;;;;5045919;28;25097;-70
2021/10/21 07:26:28;;;;;;;16.58;3.05;;;10.90;99.90;;;;;;5045429;28;25051;-71
2021/10/21 07:28:53;;;;;;;18.10;3.53;;;10.90;99.90;;;;;;5049938;28;25115;-71
2021/10/21 07:31:21;;;;;;;19.13;2.75;;;10.90;99.90;;;;;;5050602;28;25104;-67
2021/10/21 07:33:46;;;;;;;15.90;3.22;;;11.00;99.90;;;;;;5047797;28;25121;-69
2021/10/21 07:36:12;;;;;;;18.00;3.72;;;10.90;99.90;;;;;;5048521;28;25129;-70
2021/10/21 07:38:38;;;;;;;18.60;3.58;;;11.00;99.90;;;;;;5047535;28;25114;-73
2021/10/21 07:41:04;;;;;;;18.88;2.97;;;11.10;99.90;;;;;;5049173;28;25085;-75
2021/10/21 07:43:31;;;;;;;14.75;2.90;;;11.20;99.90;;;;;;5047487;28;25076;-69
2021/10/21 07:45:57;;;;;;;14.57;2.78;;;11.20;99.90;;;;;;5034377;28;25142;-71
2021/10/21 07:48:23;;;;;;;15.43;3.28;;;11.20;99.90;;;;;;5049511;28;25066;-69
2021/10/21 07:50:48;;;;;;;18.65;3.35;;;11.30;99.90;;;;;;5052370;28;25066;-67
2021/10/21 07:53:14;;;;;;;16.48;3.13;;;11.30;99.90;;;;;;5042482;28;25095;-68
2021/10/21 07:55:40;;;;;;;15.00;3.50;;;11.40;99.90;;;;;;5046433;28;25109;-68
2021/10/21 07:58:06;;;;;;;17.48;3.55;;;11.40;99.90;;;;;;5047891;28;25096;-72
2021/10/21 08:00:32;;;;;;;15.30;3.03;;;11.40;99.90;;;;;;5048473;28;25074;-69
2021/10/21 08:02:59;;;;;;;16.75;2.70;;;11.50;99.90;;;;;;5046586;28;25071;-71
2021/10/21 08:05:27;;;;;;;24.13;2.75;;;11.50;99.90;;;;;;5047091;28;25121;-73
2021/10/21 08:07:53;;;;;;;11.63;2.22;;;11.50;99.90;;;;;;5047236;28;25141;-75
2021/10/21 08:10:19;;;;;;;12.88;3.22;;;11.50;99.90;;;;;;5020397;28;25074;-72
2021/10/21 08:12:46;;;;;;;15.35;3.28;;;11.40;99.90;;;;;;5046506;28;25086;-69
2021/10/21 08:15:14;;;;;;;12.88;3.88;;;11.40;99.90;;;;;;5047889;28;25117;-69
2021/10/21 08:17:41;;;;;;;16.08;3.67;;;11.10;99.90;;;;;;5047825;28;25103;-72
2021/10/21 08:20:10;;;;;;;23.02;3.90;;;10.90;99.90;;;;;;5053548;28;25072;-70
2021/10/21 08:22:36;;;;;;;15.52;3.30;;;10.90;99.90;;;;;;5046877;28;25056;-71
2021/10/21 08:25:02;;;;;;;16.77;2.65;;;10.90;99.90;;;;;;5025588;28;25101;-69
2021/10/21 08:27:28;;;;;;;18.08;2.97;;;10.90;99.90;;;;;;5041981;28;25075;-70
2021/10/21 08:29:53;;;;;;;16.88;3.30;;;10.90;99.90;;;;;;5023511;28;25123;-71
2021/10/21 08:32:19;;;;;;;17.15;3.50;;;10.90;99.90;;;;;;5049140;28;25156;-68
2021/10/21 08:34:45;;;;;;;17.15;3.10;;;10.90;99.90;;;;;;5032579;28;25084;-71
2021/10/21 08:37:11;;;;;;;9.43;2.30;;;11.00;99.90;;;;;;5056734;28;25064;-68
2021/10/21 08:39:38;;;;;;;13.65;2.75;;;11.10;99.90;;;;;;5035418;28;25051;-68
2021/10/21 08:42:05;;;;;;;13.18;2.60;;;11.20;99.90;;;;;;5048918;28;25105;-74
2021/10/21 08:44:35;;;;;;;11.02;2.15;;;11.20;99.90;;;;;;5051824;28;25059;-69
2021/10/21 08:47:01;;;;;;;14.90;3.15;;;11.20;99.90;;;;;;5028731;28;25151;-73
2021/10/21 08:49:28;;;;;;;13.35;2.28;;;11.20;99.90;;;;;;5054759;28;25091;-73
2021/10/21 08:51:54;;;;;;;22.83;2.75;;;11.20;99.90;;;;;;5031341;28;25077;-73
2021/10/21 08:54:20;;;;;;;7.93;2.10;;;11.10;99.90;;;;;;5045797;28;25069;-70
2021/10/21 08:56:48;;;;;;;14.93;2.35;;;11.00;99.90;;;;;;5051432;28;25082;-70
2021/10/21 08:59:14;;;;;;;13.20;2.78;;;10.90;99.90;;;;;;5042718;28;25112;-71
2021/10/21 09:09:24;;;;;;;9.85;2.50;;;10.80;99.90;;;;;;5047720;28;25131;-71
2021/10/21 09:12:04;;;;;;;21.70;2.58;;;10.80;99.90;;;;;;5047787;28;25052;-71
2021/10/21 09:14:37;;;;;;;14.50;2.67;;;10.90;99.90;;;;;;5050011;28;25202;-70
2021/10/21 09:17:04;;;;;;;17.38;2.72;;;10.90;99.90;;;;;;5056714;28;25059;-70
2021/10/21 09:19:31;;;;;;;11.70;3.08;;;11.00;99.90;;;;;;5050936;28;25087;-71
2021/10/21 09:21:56;;;;;;;18.27;2.42;;;11.10;99.90;;;;;;5053322;28;25101;-70
2021/10/21 09:24:28;;;;;;;12.95;3.20;;;11.00;99.90;;;;;;5050736;28;25095;-71
2021/10/21 09:27:00;;;;;;;16.23;2.70;;;11.00;99.90;;;;;;5056614;28;25074;-72
2021/10/21 09:29:27;;;;;;;16.92;2.90;;;11.00;99.90;;;;;;5058610;28;25099;-71
2021/10/21 09:32:19;;;;;;;14.55;2.92;;;11.10;99.90;;;;;;5074551;28;25057;-70
2021/10/21 09:35:02;;;;;;;17.27;2.83;;;11.10;99.90;;;;;;5062761;28;25074;-70
2021/10/21 09:37:41;;;;;;;12.63;2.22;;;11.10;99.90;;;;;;5064029;28;25049;-72
2021/10/21 09:40:13;;;;;;;17.40;3.83;;;11.20;99.90;;;;;;5057027;28;25089;-70
2021/10/21 09:42:54;;;;;;;13.13;2.33;;;11.30;99.90;;;;;;5048923;28;25084;-70
2021/10/21 09:45:28;;;;;;;11.77;2.78;;;11.30;99.90;;;;;;5045842;28;25094;-69
2021/10/21 09:47:59;;;;;;;18.63;2.50;;;11.40;99.90;;;;;;5051326;28;25093;-70
2021/10/21 09:50:36;;;;;;;13.65;3.38;;;11.50;99.90;;;;;;5044798;28;25073;-72
2021/10/21 09:53:13;;;;;;;19.60;4.05;;;11.60;99.90;;;;;;5032448;28;25089;-69
2021/10/21 09:55:41;;;;;;;13.82;2.22;;;11.70;99.90;;;;;;5047561;28;25153;-69
2021/10/21 09:58:16;;;;;;;9.65;2.30;;;11.70;99.90;;;;;;5046432;28;25075;-69
2021/10/21 10:00:44;;;;;;;11.75;2.50;;;11.90;99.90;;;;;;5049753;28;25153;-72
2021/10/21 10:03:19;;;;;;;13.48;3.55;;;12.00;99.90;;;;;;5032801;28;25101;-70
2021/10/21 10:05:47;;;;;;;11.35;2.47;;;12.10;99.90;;;;;;5050576;28;25120;-71
2021/10/21 10:08:14;;;;;;;11.38;2.50;;;12.10;99.90;;;;;;5047193;28;25108;-71
2021/10/21 10:10:44;;;;;;;13.90;3.13;;;12.30;99.90;;;;;;5028932;28;25102;-71
2021/10/21 10:13:11;;;;;;;16.50;2.47;;;12.40;99.90;;;;;;5051693;28;25118;-71
2021/10/21 10:15:38;;;;;;;11.10;2.60;;;12.40;99.90;;;;;;5050175;28;25170;-70
2021/10/21 10:18:08;;;;;;;17.60;3.45;;;12.40;99.90;;;;;;5051591;28;25081;-71
2021/10/21 10:20:35;;;;;;;19.10;3.05;;;12.30;99.90;;;;;;5048094;28;25080;-71
2021/10/21 10:23:05;;;;;;;16.92;2.75;;;12.20;99.90;;;;;;5032066;28;25053;-70
2021/10/21 10:25:31;;;;;;;10.35;2.20;;;12.30;99.90;;;;;;5049245;28;25091;-69
2021/10/21 10:28:00;;;;;;;16.83;2.13;;;12.40;99.90;;;;;;5059062;28;25072;-71
2021/10/21 10:30:52;;;;;;;11.88;1.75;;;12.40;99.90;;;;;;5051337;28;25103;-72
2021/10/21 10:33:33;;;;;;;8.87;1.80;;;12.50;99.90;;;;;;5049878;28;25067;-71
2021/10/21 10:36:23;;;;;;;18.95;2.97;;;12.70;99.90;;;;;;5051795;28;25152;-71
2021/10/21 10:38:50;;;;;;;18.23;2.85;;;12.70;99.90;;;;;;5044269;28;25149;-70
2021/10/21 10:41:41;;;;;;;10.27;2.35;;;12.80;99.90;;;;;;5046870;28;25076;-69
2021/10/21 10:44:08;;;;;;;13.20;2.25;;;12.70;99.90;;;;;;5047653;28;25069;-70
2021/10/21 10:46:53;;;;;;;7.30;1.60;;;12.80;99.90;;;;;;5049684;28;25060;-70
2021/10/21 10:49:37;;;;;;;4.85;1.25;;;12.70;99.90;;;;;;5041738;28;25063;-70
2021/10/21 10:52:04;;;;;;;8.27;1.58;;;12.70;99.90;;;;;;5045902;28;25070;-70
2021/10/21 10:54:54;;;;;;;8.98;2.08;;;12.70;99.90;;;;;;5055274;28;25095;-75
2021/10/21 10:57:26;;;;;;;6.13;1.20;;;12.40;99.90;;;;;;5051604;28;25111;-74
2021/10/21 10:59:52;;;;;;;6.90;1.20;;;12.50;99.90;;;;;;5040798;28;25115;-72
2021/10/21 11:02:29;;;;;;;9.75;1.40;;;12.30;99.90;;;;;;5055478;28;25086;-71
2021/10/21 11:05:04;;;;;;;3.85;0.63;;;11.90;99.90;;;;;;5055292;28;25070;-71
2021/10/21 11:07:57;;;;;;;3.05;0.90;;;11.60;99.90;;;;;;5059598;28;25059;-73
2021/10/21 11:10:23;;;;;;;7.78;1.38;;;11.50;99.90;;;;;;5052445;28;25065;-70
2021/10/21 11:12:52;;;;;;;6.63;1.05;;;11.00;99.90;;;;;;5059681;28;25057;-72
2021/10/21 11:15:34;;;;;;;8.38;1.55;;;10.80;99.90;;;;;;5067273;28;25055;-72
2021/10/21 11:18:05;;;;;;;11.98;2.28;;;10.80;99.90;;;;;;5029966;28;25054;-74
2021/10/21 11:20:41;;;;;;;14.80;1.58;;;10.50;99.90;;;;;;5031509;28;25124;-73
2021/10/21 11:23:29;;;;;;;4.60;1.48;;;10.30;99.90;;;;;;5034063;28;25093;-69
2021/10/21 11:26:47;;;;;;;20.85;1.90;;;10.10;99.90;;;;;;5055558;28;25078;-74
2021/10/21 11:29:18;;;;;;;10.40;1.88;;;10.00;99.90;;;;;;5033334;28;25078;-69
2021/10/21 11:31:48;;;;;;;8.48;1.67;;;10.00;99.90;;;;;;5038807;28;25095;-71
2021/10/21 11:34:15;;;;;;;6.57;1.50;;;9.90;99.90;;;;;;5047542;28;25061;-72
2021/10/21 11:36:49;;;;;;;5.97;1.70;;;9.80;99.90;;;;;;5041492;28;25051;-72
2021/10/21 11:39:15;;;;;;;7.68;1.88;;;9.80;99.90;;;;;;5015362;28;25107;-71
2021/10/21 11:41:44;;;;;;;13.27;2.03;;;9.90;99.90;;;;;;5025973;28;25102;-72
2021/10/21 11:44:10;;;;;;;9.35;2.03;;;10.00;99.90;;;;;;5049710;28;25106;-73
2021/10/21 11:46:36;;;;;;;8.27;1.63;;;10.00;99.90;;;;;;5016413;28;25120;-71
2021/10/21 11:49:03;;;;;;;9.63;1.98;;;9.90;99.90;;;;;;5048564;28;25151;-72
2021/10/21 11:51:32;;;;;;;12.20;1.92;;;10.00;99.90;;;;;;5049370;28;25116;-70
2021/10/21 11:54:07;;;;;;;10.60;1.75;;;10.10;99.90;;;;;;5047508;28;25066;-73
2021/10/21 11:56:38;;;;;;;9.20;2.13;;;9.90;99.90;;;;;;5051362;28;25071;-73
2021/10/21 11:59:04;;;;;;;13.18;2.58;;;10.10;99.90;;;;;;5046679;28;25054;-74
2021/10/21 12:01:30;;;;;;;8.80;1.80;;;10.10;99.90;;;;;;5048449;28;25074;-70
2021/10/21 12:03:56;;;;;;;20.35;2.20;;;10.00;99.90;;;;;;5035242;28;25127;-72
2021/10/21 12:06:28;;;;;;;12.13;1.80;;;10.00;99.90;;;;;;5049734;28;25061;-73
2021/10/21 12:09:04;;;;;;;10.68;1.85;;;9.90;99.90;;;;;;5046753;28;25140;-72
2021/10/21 12:11:30;;;;;;;13.75;1.92;;;10.00;99.90;;;;;;5036918;28;25046;-73
2021/10/21 12:14:02;;;;;;;10.77;1.88;;;10.10;99.90;;;;;;5035654;28;25071;-73
2021/10/21 12:16:28;;;;;;;12.93;2.30;;;10.30;99.90;;;;;;5044796;28;25079;-73
2021/10/21 12:18:54;;;;;;;9.18;2.22;;;10.20;99.90;;;;;;5023955;28;25052;-73
2021/10/21 12:21:20;;;;;;;11.85;2.55;;;10.30;99.90;;;;;;5019983;28;25074;-72
2021/10/21 12:23:50;;;;;;;15.80;2.03;;;10.30;99.90;;;;;;5037850;28;25064;-71
2021/10/21 12:26:31;;;;;;;12.38;2.10;;;10.30;99.90;;;;;;5044331;28;25096;-73
2021/10/21 12:29:02;;;;;;;13.60;2.05;;;10.60;99.90;;;;;;5047593;28;25085;-70
2021/10/21 12:31:30;;;;;;;11.13;1.77;;;10.80;99.90;;;;;;5044917;28;25131;-75
2021/10/21 12:34:06;;;;;;;7.70;2.00;;;10.80;99.90;;;;;;5046659;28;25073;-72
2021/10/21 12:36:42;;;;;;;13.23;2.72;;;10.80;99.90;;;;;;5045347;28;25053;-73
2021/10/21 12:39:15;;;;;;;13.90;2.78;;;10.60;99.90;;;;;;5046388;28;25143;-71
2021/10/21 12:42:00;;;;;;;13.80;2.38;;;10.50;99.90;;;;;;5045985;28;25063;-72
2021/10/21 12:44:30;;;;;;;20.63;3.65;;;10.60;99.90;;;;;;5024476;28;25126;-71
2021/10/21 12:47:14;;;;;;;16.45;3.38;;;10.60;99.90;;;;;;5040886;28;25056;-70
2021/10/21 12:49:51;;;;;;;16.65;2.83;;;10.70;99.90;;;;;;5050079;28;25070;-71
2021/10/21 12:52:23;;;;;;;12.55;2.10;;;10.80;99.90;;;;;;5053892;28;25097;-70